This is the latest recevied weather packets stored in our database for station/object 9M4GEK-3. If no packets are shown the sender has not sent any weather packets the latest 10 day(s).
| Time | Temp. | Humidity | Pressure | Rain* | Wind** | Luminosity | Snow |
|---|---|---|---|---|---|---|---|
| 1778073314 | 27.78° C | 73% | 1006.8 hPa | - | - | - | - |
| 1778071068 | 27.78° C | 70% | 1005.8 hPa | - | - | - | - |
| 1778070614 | 27.78° C | 71% | 1005.8 hPa | - | - | - | - |
| 1778070574 | 28.33° C | 70% | 1005.6 hPa | - | - | - | - |
| 1778069713 | 27.78° C | 71% | 1005.8 hPa | - | - | - | - |
| 1778069702 | 28.33° C | 69% | 1005.6 hPa | - | - | - | - |
| 1778068652 | 28.33° C | 68% | 1005.7 hPa | - | - | - | - |
| 1778067013 | 28.33° C | 69% | 1005.6 hPa | - | - | - | - |
| 1778063411 | 29.44° C | 66% | 1005.1 hPa | - | - | - | - |
| 1778061070 | 28.33° C | 69% | 1005 hPa | - | - | - | - |
| 1778059810 | 28.33° C | 69% | 1005.1 hPa | - | - | - | - |
| 1778058911 | 28.33° C | 71% | 1005.2 hPa | - | - | - | - |
| 1778058051 | 27.22° C | 73% | 1005.2 hPa | - | - | - | - |
| 1778056262 | 28.33° C | 71% | 1005.1 hPa | - | - | - | - |
| 1778056210 | 28.33° C | 71% | 1005.1 hPa | - | - | - | - |
| 1778055364 | 29.44° C | 65% | 1005 hPa | - | - | - | - |
| 1778055309 | 29.44° C | 65% | 1005 hPa | - | - | - | - |
| 1778054449 | 33.89° C | 50% | 1004.3 hPa | - | - | - | - |
| 1778054409 | 33.89° C | 50% | 1004.3 hPa | - | - | - | - |
| 1778053561 | 35° C | 46% | 1004.4 hPa | - | - | - | - |
| 1778052610 | 38.33° C | 40% | 1004.2 hPa | - | - | - | - |
| 1778051710 | 42.78° C | 33% | 1004.3 hPa | - | - | - | - |
| 1778050810 | 42.78° C | 35% | 1005 hPa | - | - | - | - |
| 1778049437 | 42.78° C | 36% | 1005.4 hPa | - | - | - | - |
| 1778049009 | 42.78° C | 36% | 1005.4 hPa | - | - | - | - |
* Rain since midnight (hover to see other rain measurements)
** Current wind speed in m/s (hover to see current wind gust speed)